Time;durP1;ratioP1;P1;durP2;ratioP2;P2;SDS_P1;SDS_P2;PMS_P1;PMS_P2;Temp;Humidity;BMP_temperature;BMP_pressure;BME280_temperature;BME280_humidity;BME280_pressure;Samples;Min_cycle;Max_cycle;Signal;HPM_P1;HPM_P2
2021/12/31 00:01:20;;;;;;;11.10;2.80;;;14.60;99.90;;;;;;5077378;28;20218;-87
2021/12/31 00:03:49;;;;;;;5.03;2.43;;;14.60;99.90;;;;;;5076299;28;20176;-81
2021/12/31 00:06:17;;;;;;;7.80;2.50;;;14.60;99.90;;;;;;5060913;28;20171;-80
2021/12/31 00:09:02;;;;;;;4.60;2.10;;;14.70;99.90;;;;;;5076976;28;20189;-86
2021/12/31 00:12:07;;;;;;;7.23;2.33;;;14.60;99.90;;;;;;5045205;28;20179;-83
2021/12/31 00:15:12;;;;;;;6.50;2.60;;;14.60;99.90;;;;;;5071061;28;20202;-81
2021/12/31 00:17:56;;;;;;;6.83;2.10;;;14.60;99.90;;;;;;5049914;28;20184;-87
2021/12/31 00:21:03;;;;;;;6.53;2.47;;;14.60;99.90;;;;;;5072934;28;20171;-86
2021/12/31 00:23:29;;;;;;;7.60;2.20;;;14.60;99.90;;;;;;5080772;28;20235;-82
2021/12/31 00:25:55;;;;;;;5.50;2.20;;;14.60;99.90;;;;;;5077129;28;20182;-84
2021/12/31 00:28:20;;;;;;;5.47;2.27;;;14.60;99.90;;;;;;5073154;28;20523;-82
2021/12/31 00:30:52;;;;;;;5.10;2.00;;;14.60;99.90;;;;;;5069080;28;20231;-82
2021/12/31 00:34:11;;;;;;;6.20;2.10;;;14.60;99.90;;;;;;5071397;28;20167;-80
2021/12/31 00:36:47;;;;;;;6.30;2.10;;;14.60;99.90;;;;;;5069646;28;20198;-81
2021/12/31 00:39:15;;;;;;;5.10;2.60;;;14.60;99.90;;;;;;5067301;28;20179;-80
2021/12/31 00:41:43;;;;;;;7.20;2.73;;;14.70;99.90;;;;;;5066915;28;20206;-81
2021/12/31 00:44:16;;;;;;;8.10;2.83;;;14.60;99.90;;;;;;5075459;28;20191;-80
2021/12/31 00:46:47;;;;;;;5.47;2.33;;;14.60;99.90;;;;;;5078969;28;20146;-81
2021/12/31 00:49:15;;;;;;;9.57;3.27;;;14.60;99.90;;;;;;5080094;28;20168;-87
2021/12/31 00:51:44;;;;;;;6.00;2.80;;;14.60;99.90;;;;;;5071243;28;20192;-86
2021/12/31 00:54:10;;;;;;;7.10;2.83;;;14.60;99.90;;;;;;5064360;28;20278;-88
2021/12/31 00:59:59;;;;;;;7.20;2.50;;;14.40;99.90;;;;;;5073708;28;20198;-81
2021/12/31 01:02:28;;;;;;;8.67;2.70;;;14.30;99.90;;;;;;5066432;28;20223;-81
2021/12/31 01:05:11;;;;;;;6.93;2.73;;;14.30;99.90;;;;;;5060936;28;20171;-89
2021/12/31 01:07:41;;;;;;;7.63;2.90;;;14.30;99.90;;;;;;5058301;28;20164;-90
2021/12/31 01:10:16;;;;;;;9.23;3.03;;;14.30;99.90;;;;;;5058735;28;20178;-81
2021/12/31 01:12:43;;;;;;;5.17;2.50;;;14.30;99.90;;;;;;5040685;28;20170;-90
2021/12/31 01:15:19;;;;;;;7.67;3.07;;;14.30;99.90;;;;;;5058403;28;20160;-90
2021/12/31 01:20:26;;;;;;;9.50;2.97;;;14.30;99.90;;;;;;5056476;28;20177;-86
2021/12/31 01:22:51;;;;;;;6.27;2.70;;;14.40;99.90;;;;;;5056419;28;20210;-86
2021/12/31 01:25:18;;;;;;;10.10;3.23;;;14.30;99.90;;;;;;5057134;28;20182;-85
2021/12/31 01:27:44;;;;;;;6.93;2.87;;;14.40;99.90;;;;;;5057076;28;20207;-83
2021/12/31 01:30:13;;;;;;;8.07;3.07;;;14.40;99.90;;;;;;5062113;28;20213;-84
2021/12/31 01:32:41;;;;;;;7.43;2.57;;;14.50;99.90;;;;;;5062589;28;20620;-83
2021/12/31 01:35:07;;;;;;;8.43;3.03;;;14.50;99.90;;;;;;5062182;28;20539;-83
2021/12/31 01:37:35;;;;;;;7.80;3.40;;;14.40;99.90;;;;;;5056151;28;20213;-85
2021/12/31 01:40:03;;;;;;;9.30;3.23;;;14.50;99.90;;;;;;5056730;28;20175;-90
2021/12/31 01:42:33;;;;;;;8.63;3.33;;;14.40;99.90;;;;;;5061595;28;20207;-85
2021/12/31 01:45:14;;;;;;;6.60;3.20;;;14.50;99.90;;;;;;5041072;28;20219;-85
2021/12/31 01:50:13;;;;;;;9.43;3.57;;;14.30;99.90;;;;;;5072904;28;20202;-85
2021/12/31 01:52:40;;;;;;;11.23;3.73;;;14.10;99.90;;;;;;5054058;28;20194;-88
2021/12/31 01:55:13;;;;;;;9.33;3.33;;;14.10;99.90;;;;;;5060990;28;20571;-89
2021/12/31 01:57:40;;;;;;;9.83;3.80;;;14.00;99.90;;;;;;5057471;28;20269;-89
2021/12/31 02:00:10;;;;;;;8.03;3.50;;;14.00;99.90;;;;;;5055811;28;20186;-87
2021/12/31 02:02:36;;;;;;;9.10;3.60;;;14.10;99.90;;;;;;5057542;28;20709;-85
2021/12/31 02:05:05;;;;;;;11.57;4.13;;;14.00;99.90;;;;;;5073450;28;20188;-80
2021/12/31 02:07:32;;;;;;;6.77;3.53;;;14.00;99.90;;;;;;5073806;28;20266;-82
2021/12/31 02:09:58;;;;;;;8.17;3.57;;;13.90;99.90;;;;;;5066299;28;20176;-88
2021/12/31 02:12:49;;;;;;;11.40;3.70;;;13.90;99.90;;;;;;5060247;28;20173;-83
2021/12/31 02:15:18;;;;;;;8.40;3.60;;;13.80;99.90;;;;;;5058108;28;20632;-90
2021/12/31 02:17:47;;;;;;;9.03;3.73;;;13.80;99.90;;;;;;5062864;28;20209;-83
2021/12/31 02:20:14;;;;;;;6.13;3.63;;;13.70;99.90;;;;;;5061465;28;20356;-82
2021/12/31 02:22:50;;;;;;;10.17;3.63;;;13.80;99.90;;;;;;5058929;28;20210;-84
2021/12/31 02:25:15;;;;;;;10.13;3.57;;;13.60;99.90;;;;;;5071204;28;20189;-84
2021/12/31 02:27:42;;;;;;;11.30;3.53;;;13.70;99.90;;;;;;5073909;28;20242;-87
2021/12/31 02:30:11;;;;;;;7.33;3.80;;;13.60;99.90;;;;;;5068113;28;20190;-81
2021/12/31 02:32:40;;;;;;;7.93;4.17;;;13.60;99.90;;;;;;5062361;28;20244;-88
2021/12/31 02:35:10;;;;;;;11.13;4.13;;;13.60;99.90;;;;;;5060541;28;20175;-85
2021/12/31 02:37:36;;;;;;;9.07;3.83;;;13.60;99.90;;;;;;5060141;28;20194;-86
2021/12/31 02:40:05;;;;;;;9.73;3.80;;;13.70;99.90;;;;;;5057739;28;20163;-90
2021/12/31 02:42:31;;;;;;;11.23;3.80;;;13.60;99.90;;;;;;5056095;28;20232;-88
2021/12/31 02:44:57;;;;;;;9.83;4.00;;;13.70;99.90;;;;;;5058213;28;20225;-89
2021/12/31 02:47:22;;;;;;;9.50;4.30;;;13.50;99.90;;;;;;5056836;28;20202;-91
2021/12/31 02:49:49;;;;;;;9.13;3.87;;;13.40;99.90;;;;;;5057540;28;20165;-90
2021/12/31 02:52:16;;;;;;;9.00;3.67;;;13.40;99.90;;;;;;5061572;28;20253;-88
2021/12/31 02:54:48;;;;;;;12.77;3.63;;;13.30;99.90;;;;;;5077481;28;20216;-86
2021/12/31 02:57:20;;;;;;;10.43;4.73;;;13.30;99.90;;;;;;5059873;28;20333;-89
2021/12/31 02:59:46;;;;;;;9.20;3.73;;;13.30;99.90;;;;;;5069528;28;20185;-90
2021/12/31 03:02:24;;;;;;;10.20;4.00;;;13.30;99.90;;;;;;5057401;28;20666;-81
2021/12/31 03:04:52;;;;;;;8.67;3.77;;;13.30;99.90;;;;;;5055153;28;20173;-85
2021/12/31 03:07:19;;;;;;;9.73;4.23;;;13.30;99.90;;;;;;5053447;28;20175;-84
2021/12/31 03:09:47;;;;;;;9.83;4.57;;;13.30;99.90;;;;;;5054617;28;20662;-87
2021/12/31 03:12:16;;;;;;;9.93;3.83;;;13.40;99.90;;;;;;5056861;28;20170;-83
2021/12/31 03:14:47;;;;;;;8.60;3.93;;;13.30;99.90;;;;;;5076332;28;20161;-83
2021/12/31 03:17:14;;;;;;;10.83;4.43;;;13.10;99.90;;;;;;5072539;28;20181;-83
2021/12/31 03:19:40;;;;;;;10.73;4.60;;;13.20;99.90;;;;;;5068986;28;20173;-88
2021/12/31 03:22:11;;;;;;;8.83;4.43;;;13.20;99.90;;;;;;5060459;28;20204;-85
2021/12/31 03:24:43;;;;;;;7.37;3.67;;;13.20;99.90;;;;;;5058129;28;20174;-87
2021/12/31 03:27:09;;;;;;;9.30;4.47;;;13.10;99.90;;;;;;5067587;28;20237;-82
2021/12/31 03:29:35;;;;;;;9.60;3.63;;;13.10;99.90;;;;;;5075229;28;20678;-82
2021/12/31 03:32:01;;;;;;;11.10;4.77;;;13.20;99.90;;;;;;5064678;28;20184;-81
2021/12/31 03:37:58;;;;;;;10.80;3.93;;;13.10;99.90;;;;;;5067406;28;20184;-81
2021/12/31 03:40:24;;;;;;;9.17;3.70;;;13.10;99.90;;;;;;5076229;28;20185;-82
2021/12/31 03:42:51;;;;;;;8.80;4.10;;;13.00;99.90;;;;;;5066007;28;20308;-89
2021/12/31 03:45:44;;;;;;;8.37;4.27;;;13.00;99.90;;;;;;5062445;28;20158;-90
2021/12/31 03:48:10;;;;;;;9.30;4.27;;;12.90;99.90;;;;;;5081867;28;20164;-82
2021/12/31 03:50:36;;;;;;;8.50;3.80;;;12.90;99.90;;;;;;5074150;28;20633;-81
2021/12/31 03:53:04;;;;;;;9.37;3.70;;;12.90;99.90;;;;;;5069531;28;20207;-81
2021/12/31 03:58:52;;;;;;;8.90;3.63;;;12.90;99.90;;;;;;5063185;28;20211;-89
2021/12/31 04:01:18;;;;;;;7.63;3.90;;;12.80;99.90;;;;;;5065464;28;20208;-81
2021/12/31 04:03:44;;;;;;;7.00;3.50;;;12.80;99.90;;;;;;5072381;28;20181;-80
2021/12/31 04:06:09;;;;;;;7.80;3.70;;;12.90;99.90;;;;;;5068930;28;20175;-80
2021/12/31 04:08:35;;;;;;;7.77;3.83;;;12.80;99.90;;;;;;5070334;28;20161;-81
2021/12/31 04:11:00;;;;;;;8.57;3.47;;;12.80;99.90;;;;;;5063241;28;20200;-82
2021/12/31 04:13:26;;;;;;;6.27;3.47;;;12.70;99.90;;;;;;5058996;28;20192;-86
2021/12/31 04:15:52;;;;;;;7.77;3.60;;;12.90;99.90;;;;;;5057150;28;20732;-84
2021/12/31 04:18:17;;;;;;;8.37;3.27;;;13.00;99.90;;;;;;5058965;28;20269;-89
2021/12/31 04:20:45;;;;;;;9.03;3.50;;;12.80;99.90;;;;;;5059777;28;20192;-89
2021/12/31 04:23:25;;;;;;;5.80;3.37;;;12.80;99.90;;;;;;5062017;28;20165;-90
2021/12/31 04:25:52;;;;;;;8.70;3.90;;;12.80;99.90;;;;;;5061881;28;20153;-90
2021/12/31 04:28:17;;;;;;;8.53;3.53;;;12.70;99.90;;;;;;5058722;28;20193;-88
2021/12/31 04:30:43;;;;;;;8.03;3.83;;;12.70;99.90;;;;;;5057914;28;20644;-86
2021/12/31 04:33:09;;;;;;;6.90;3.27;;;12.80;99.90;;;;;;5059290;28;20177;-90
2021/12/31 04:35:35;;;;;;;5.63;3.30;;;12.70;99.90;;;;;;5065736;28;20225;-85
2021/12/31 04:38:00;;;;;;;6.87;3.23;;;12.70;99.90;;;;;;5077631;28;20178;-85
2021/12/31 04:40:26;;;;;;;6.63;3.17;;;12.70;99.90;;;;;;5078081;28;20154;-85
2021/12/31 04:42:53;;;;;;;5.00;2.77;;;12.80;99.90;;;;;;5079861;28;20235;-85
2021/12/31 04:45:19;;;;;;;8.17;3.23;;;12.60;99.90;;;;;;5078596;28;20183;-81
2021/12/31 04:47:51;;;;;;;9.07;3.23;;;12.60;99.90;;;;;;5072201;28;20256;-81
2021/12/31 04:53:39;;;;;;;6.50;3.27;;;12.60;99.90;;;;;;5059337;28;20214;-88
2021/12/31 04:56:06;;;;;;;4.60;2.77;;;12.60;99.90;;;;;;5058184;28;20550;-89
2021/12/31 04:58:31;;;;;;;6.67;3.10;;;12.60;99.90;;;;;;5060397;28;20272;-87
2021/12/31 05:00:57;;;;;;;5.13;2.80;;;12.60;99.90;;;;;;5070854;28;20304;-82
2021/12/31 05:03:24;;;;;;;6.37;3.10;;;12.60;99.90;;;;;;5076413;28;20173;-89
2021/12/31 05:05:51;;;;;;;7.27;2.83;;;12.60;99.90;;;;;;5071743;28;20176;-88
2021/12/31 05:08:16;;;;;;;8.67;2.60;;;12.60;99.90;;;;;;5070664;28;20178;-88
2021/12/31 05:10:42;;;;;;;6.70;2.60;;;12.70;99.90;;;;;;5067536;28;20174;-88
2021/12/31 05:13:10;;;;;;;5.43;2.80;;;12.60;99.90;;;;;;5061093;28;20332;-87
2021/12/31 05:15:44;;;;;;;6.60;2.60;;;12.60;99.90;;;;;;5066136;28;20281;-86
2021/12/31 05:18:09;;;;;;;7.93;2.73;;;12.50;99.90;;;;;;5066821;28;20178;-91
2021/12/31 05:20:35;;;;;;;5.27;2.50;;;12.60;99.90;;;;;;5064886;28;20183;-88
2021/12/31 05:23:01;;;;;;;5.73;2.80;;;12.50;99.90;;;;;;5056287;28;20204;-87
2021/12/31 05:25:27;;;;;;;6.63;2.63;;;12.60;99.90;;;;;;5058327;28;20203;-89
2021/12/31 05:27:52;;;;;;;6.10;2.77;;;12.50;99.90;;;;;;5059216;28;20173;-82
2021/12/31 05:30:18;;;;;;;4.53;2.57;;;12.50;99.90;;;;;;5058362;28;20665;-89
2021/12/31 05:32:45;;;;;;;4.47;2.17;;;12.60;99.90;;;;;;5061907;28;20191;-90
2021/12/31 05:35:11;;;;;;;4.40;2.30;;;12.70;99.90;;;;;;5061389;28;20176;-90
2021/12/31 05:37:36;;;;;;;6.93;2.60;;;12.50;99.90;;;;;;5059033;28;20167;-89
2021/12/31 05:40:03;;;;;;;5.67;2.70;;;12.50;99.90;;;;;;5058712;28;20644;-89
2021/12/31 05:42:29;;;;;;;8.17;2.83;;;12.50;99.90;;;;;;5059522;28;20220;-90
2021/12/31 05:44:55;;;;;;;5.37;2.40;;;12.60;99.90;;;;;;5066912;28;20224;-87
2021/12/31 05:47:23;;;;;;;6.07;2.30;;;12.70;99.90;;;;;;5059995;28;20180;-81
2021/12/31 05:49:52;;;;;;;6.13;2.57;;;12.60;99.90;;;;;;5062781;28;20177;-88
2021/12/31 05:52:18;;;;;;;10.03;2.23;;;12.50;99.90;;;;;;5057378;28;20257;-90
2021/12/31 05:54:43;;;;;;;6.47;2.43;;;12.60;99.90;;;;;;5054940;28;20216;-84
2021/12/31 05:57:10;;;;;;;6.07;2.00;;;12.50;99.90;;;;;;5054483;28;20319;-85
2021/12/31 05:59:36;;;;;;;6.63;2.27;;;12.50;99.90;;;;;;5055829;28;20181;-88
2021/12/31 06:02:01;;;;;;;4.93;2.30;;;12.40;99.90;;;;;;5068395;28;20224;-81
2021/12/31 06:04:27;;;;;;;5.33;2.10;;;12.40;99.90;;;;;;5079253;28;20171;-80
2021/12/31 06:06:53;;;;;;;7.20;2.37;;;12.50;99.90;;;;;;5071383;28;20233;-82
2021/12/31 06:09:22;;;;;;;5.83;2.20;;;12.50;99.90;;;;;;5069949;28;20162;-87
2021/12/31 06:11:54;;;;;;;7.00;2.57;;;12.50;99.90;;;;;;5073993;28;20157;-82
2021/12/31 06:14:23;;;;;;;3.53;2.00;;;12.50;99.90;;;;;;5076063;28;20213;-82
2021/12/31 06:17:26;;;;;;;3.83;2.13;;;12.50;99.90;;;;;;5075131;28;20169;-80
2021/12/31 06:19:55;;;;;;;5.63;2.00;;;12.60;99.90;;;;;;5075170;28;20168;-87
2021/12/31 06:22:24;;;;;;;4.03;2.00;;;12.70;99.90;;;;;;5065994;28;20279;-90
2021/12/31 06:24:52;;;;;;;4.33;1.77;;;12.50;99.90;;;;;;5070148;28;20169;-89
2021/12/31 06:27:18;;;;;;;5.70;2.17;;;12.50;99.90;;;;;;5061509;28;20579;-89
2021/12/31 06:29:45;;;;;;;5.50;2.00;;;12.50;99.90;;;;;;5056071;28;20280;-88
2021/12/31 06:32:12;;;;;;;5.27;1.93;;;12.50;99.90;;;;;;5054763;28;20189;-87
2021/12/31 06:34:38;;;;;;;6.03;2.23;;;12.70;99.90;;;;;;5071141;28;20164;-83
2021/12/31 06:37:04;;;;;;;4.63;2.33;;;12.60;99.90;;;;;;5078823;28;20171;-81
2021/12/31 06:39:30;;;;;;;4.73;1.83;;;12.70;99.90;;;;;;5066842;28;20256;-81
2021/12/31 06:41:55;;;;;;;4.23;1.87;;;12.60;99.90;;;;;;5066681;28;20208;-83
2021/12/31 06:44:24;;;;;;;3.97;2.17;;;12.70;99.90;;;;;;5055483;28;20530;-82
2021/12/31 06:47:08;;;;;;;4.20;1.90;;;12.70;99.90;;;;;;5055644;28;20176;-88
2021/12/31 06:49:35;;;;;;;3.03;2.10;;;12.60;99.90;;;;;;5054320;28;20203;-86
2021/12/31 06:52:01;;;;;;;4.63;1.90;;;12.70;99.90;;;;;;5056205;28;20692;-86
2021/12/31 06:54:27;;;;;;;5.53;2.10;;;12.70;99.90;;;;;;5057264;28;20211;-90
2021/12/31 06:56:53;;;;;;;4.20;1.83;;;12.70;99.90;;;;;;5056908;28;20194;-89
2021/12/31 06:59:18;;;;;;;4.10;1.73;;;12.70;99.90;;;;;;5058448;28;20168;-89
2021/12/31 07:01:46;;;;;;;5.00;2.40;;;12.80;99.90;;;;;;5056801;28;20750;-87
2021/12/31 07:04:11;;;;;;;4.13;2.07;;;12.80;99.90;;;;;;5065471;28;20170;-90
2021/12/31 07:06:37;;;;;;;5.43;2.17;;;12.80;99.90;;;;;;5065534;28;20181;-86
2021/12/31 07:09:02;;;;;;;5.50;2.10;;;12.70;99.90;;;;;;5064288;28;20548;-83
2021/12/31 07:11:28;;;;;;;5.27;2.20;;;12.70;99.90;;;;;;5059138;28;20638;-88
2021/12/31 07:13:55;;;;;;;7.00;2.17;;;12.80;99.90;;;;;;5055692;28;20177;-88
2021/12/31 07:16:21;;;;;;;6.40;2.40;;;13.00;99.90;;;;;;5056566;28;20622;-86
2021/12/31 07:18:49;;;;;;;6.10;1.90;;;12.80;99.90;;;;;;5060464;28;20170;-90
2021/12/31 07:21:15;;;;;;;7.30;2.00;;;12.80;99.90;;;;;;5062488;28;20202;-90
2021/12/31 07:23:41;;;;;;;6.37;2.40;;;12.80;99.90;;;;;;5071222;28;20230;-86
2021/12/31 07:26:07;;;;;;;5.00;2.30;;;12.70;99.90;;;;;;5078679;28;20207;-81
2021/12/31 07:28:33;;;;;;;5.00;1.83;;;12.70;99.90;;;;;;5068395;28;20198;-81
2021/12/31 07:30:59;;;;;;;3.27;1.80;;;12.80;99.90;;;;;;5060596;28;20214;-87
2021/12/31 07:33:41;;;;;;;6.37;1.80;;;12.70;99.90;;;;;;5041796;28;20308;-82
2021/12/31 07:36:09;;;;;;;4.43;2.03;;;12.60;99.90;;;;;;5040358;28;20193;-89
2021/12/31 07:38:38;;;;;;;3.97;2.13;;;12.60;99.90;;;;;;5038506;28;20190;-83
2021/12/31 07:41:04;;;;;;;4.13;2.20;;;12.60;99.90;;;;;;5038644;28;20285;-83
2021/12/31 07:43:31;;;;;;;6.57;2.57;;;12.60;99.90;;;;;;5045250;28;20184;-82
2021/12/31 07:45:58;;;;;;;4.97;2.43;;;12.50;99.90;;;;;;5059299;28;20170;-81
2021/12/31 07:48:24;;;;;;;4.63;2.30;;;12.50;99.90;;;;;;5059519;28;20280;-90
2021/12/31 07:50:51;;;;;;;5.17;2.10;;;12.50;99.90;;;;;;5057587;28;20175;-82
2021/12/31 07:53:20;;;;;;;6.97;1.97;;;12.50;99.90;;;;;;5060825;28;20185;-85
2021/12/31 07:55:50;;;;;;;4.83;2.33;;;12.70;99.90;;;;;;5060602;28;20189;-86
2021/12/31 07:58:15;;;;;;;5.77;2.53;;;12.70;99.90;;;;;;5053229;28;20170;-89
2021/12/31 08:00:41;;;;;;;4.37;2.47;;;12.80;99.90;;;;;;5052810;28;20771;-80
2021/12/31 08:03:07;;;;;;;3.30;2.03;;;12.80;99.90;;;;;;5043249;28;20211;-82
2021/12/31 08:05:35;;;;;;;5.23;2.40;;;12.80;99.90;;;;;;5045632;28;20177;-84
2021/12/31 08:08:04;;;;;;;6.97;2.33;;;12.70;99.90;;;;;;5042896;28;20627;-84
2021/12/31 08:10:32;;;;;;;4.70;2.40;;;12.70;99.90;;;;;;5041876;28;20206;-82
2021/12/31 08:13:01;;;;;;;4.83;2.60;;;12.60;99.90;;;;;;5045384;28;20634;-81
2021/12/31 08:15:27;;;;;;;5.90;2.47;;;12.60;99.90;;;;;;5046336;28;20270;-88
2021/12/31 08:17:55;;;;;;;6.03;2.50;;;12.80;99.90;;;;;;5048943;28;20257;-88
2021/12/31 08:20:21;;;;;;;7.07;2.57;;;12.90;99.90;;;;;;5041232;28;20237;-87
2021/12/31 08:22:49;;;;;;;4.67;2.50;;;12.90;99.90;;;;;;5023375;28;20687;-88
2021/12/31 08:25:19;;;;;;;5.50;2.10;;;12.80;99.90;;;;;;5041243;28;20169;-85
2021/12/31 08:27:46;;;;;;;5.73;2.23;;;12.90;99.90;;;;;;5044325;28;20618;-88
2021/12/31 08:30:18;;;;;;;6.00;2.43;;;12.90;99.90;;;;;;5050152;28;20178;-89
2021/12/31 08:32:43;;;;;;;4.90;2.20;;;12.90;99.90;;;;;;5043628;28;20420;-88
2021/12/31 08:35:09;;;;;;;4.83;2.53;;;12.80;99.90;;;;;;5041326;28;20256;-85
2021/12/31 08:37:36;;;;;;;7.33;2.63;;;12.80;99.90;;;;;;5042621;28;20171;-90
2021/12/31 08:40:05;;;;;;;5.67;3.00;;;12.80;99.90;;;;;;5046551;28;20168;-91
2021/12/31 08:42:34;;;;;;;6.40;2.93;;;12.80;99.90;;;;;;5050345;28;20206;-90
2021/12/31 08:45:00;;;;;;;4.43;2.43;;;12.80;99.90;;;;;;5033863;28;20174;-86
2021/12/31 08:47:25;;;;;;;5.03;2.53;;;12.80;99.90;;;;;;5055976;28;20206;-87
2021/12/31 08:49:51;;;;;;;5.20;2.27;;;12.80;99.90;;;;;;5058903;28;20161;-84
2021/12/31 08:52:17;;;;;;;6.47;2.90;;;12.70;99.90;;;;;;5057373;28;20204;-85
2021/12/31 08:54:44;;;;;;;5.00;2.40;;;12.80;99.90;;;;;;5055629;28;20166;-82
2021/12/31 08:57:12;;;;;;;4.53;2.50;;;12.90;99.90;;;;;;5056518;28;20287;-82
2021/12/31 08:59:44;;;;;;;3.57;2.07;;;13.00;99.90;;;;;;5055963;28;20154;-80
2021/12/31 09:02:22;;;;;;;4.03;2.20;;;12.90;99.90;;;;;;5056532;28;20221;-87
2021/12/31 09:04:50;;;;;;;6.17;2.70;;;12.90;99.90;;;;;;5050622;28;20173;-89
2021/12/31 09:07:16;;;;;;;4.47;2.53;;;12.80;99.90;;;;;;5050715;28;20192;-92
2021/12/31 09:09:44;;;;;;;3.90;2.07;;;12.80;99.90;;;;;;5048737;28;20183;-90
2021/12/31 09:12:09;;;;;;;5.90;2.50;;;12.80;99.90;;;;;;5058447;28;20215;-83
2021/12/31 09:14:35;;;;;;;4.77;1.93;;;12.80;99.90;;;;;;5059485;28;20169;-87
2021/12/31 09:17:02;;;;;;;4.30;2.17;;;12.90;99.90;;;;;;5059253;28;20177;-84
2021/12/31 09:19:45;;;;;;;4.30;2.30;;;13.00;99.90;;;;;;5058212;28;20198;-85
2021/12/31 09:22:11;;;;;;;4.23;2.53;;;13.20;99.80;;;;;;5058559;28;20218;-84
2021/12/31 09:25:09;;;;;;;4.60;2.37;;;13.20;99.90;;;;;;5059551;28;20229;-85
2021/12/31 09:27:39;;;;;;;6.03;2.40;;;13.10;99.80;;;;;;5066520;28;20171;-85
2021/12/31 09:30:25;;;;;;;3.93;2.60;;;13.20;99.90;;;;;;5079099;28;20170;-87
2021/12/31 09:33:16;;;;;;;4.73;2.97;;;13.30;99.90;;;;;;5073125;28;20172;-89
2021/12/31 09:36:21;;;;;;;4.53;2.70;;;13.20;99.90;;;;;;5070040;28;20169;-87
2021/12/31 09:38:48;;;;;;;6.37;2.60;;;13.10;99.90;;;;;;5068301;28;20156;-87
2021/12/31 09:41:17;;;;;;;4.20;2.20;;;13.10;99.90;;;;;;5074649;28;20202;-82
2021/12/31 09:43:48;;;;;;;7.30;3.20;;;13.20;99.90;;;;;;5059684;28;20186;-81
2021/12/31 09:46:17;;;;;;;4.40;2.27;;;13.10;99.90;;;;;;5077702;28;20208;-85
2021/12/31 09:48:51;;;;;;;5.77;2.60;;;13.10;99.90;;;;;;5072267;28;20197;-85
2021/12/31 09:51:21;;;;;;;3.77;2.40;;;13.10;99.90;;;;;;5077975;28;20177;-81
2021/12/31 10:04:04;;;;;;;5.10;2.10;;;13.20;99.90;;;;;;5049532;28;20222;-90
2021/12/31 10:06:32;;;;;;;3.70;2.30;;;13.30;99.80;;;;;;5051326;28;20208;-93
2021/12/31 10:09:02;;;;;;;5.40;3.27;;;13.20;99.90;;;;;;5069491;28;20166;-91
2021/12/31 10:11:30;;;;;;;4.87;2.37;;;13.10;99.90;;;;;;5061603;28;20154;-91
2021/12/31 10:13:59;;;;;;;4.67;2.20;;;13.10;99.90;;;;;;5067926;28;20236;-90
2021/12/31 10:16:28;;;;;;;5.07;2.50;;;13.20;99.90;;;;;;5063891;28;20165;-83
2021/12/31 10:19:15;;;;;;;4.87;2.37;;;13.30;99.90;;;;;;5076022;28;20218;-88
2021/12/31 10:21:49;;;;;;;5.13;2.63;;;13.30;99.90;;;;;;5049767;28;20197;-88
2021/12/31 10:24:33;;;;;;;5.00;2.30;;;13.30;99.90;;;;;;5064924;28;20181;-83
2021/12/31 10:27:02;;;;;;;3.63;2.37;;;13.50;99.40;;;;;;5073097;28;20157;-82
2021/12/31 10:29:28;;;;;;;4.13;2.27;;;13.70;98.90;;;;;;5071354;28;20198;-82
2021/12/31 10:31:54;;;;;;;4.17;2.13;;;13.70;98.50;;;;;;5055152;28;20253;-85
2021/12/31 10:34:37;;;;;;;4.77;2.50;;;13.80;97.70;;;;;;5062108;28;20171;-82
2021/12/31 10:37:25;;;;;;;4.20;2.23;;;13.90;97.50;;;;;;5057119;28;20236;-82
2021/12/31 10:40:29;;;;;;;4.40;2.33;;;14.00;97.00;;;;;;5061965;28;20168;-82
2021/12/31 10:43:15;;;;;;;4.87;2.33;;;14.00;96.90;;;;;;5048596;28;20214;-84
2021/12/31 10:46:11;;;;;;;4.40;2.67;;;14.00;96.50;;;;;;5062679;28;20279;-92
2021/12/31 10:49:09;;;;;;;5.30;2.40;;;14.00;96.60;;;;;;5065168;28;20164;-88
2021/12/31 10:52:05;;;;;;;3.50;1.90;;;14.00;95.90;;;;;;5065773;28;20223;-85
2021/12/31 10:54:46;;;;;;;5.73;2.50;;;14.00;96.40;;;;;;5059616;28;20173;-93
2021/12/31 10:57:45;;;;;;;5.17;2.10;;;14.00;96.20;;;;;;5064435;28;20197;-94
2021/12/31 11:00:15;;;;;;;4.67;2.37;;;14.00;96.40;;;;;;5063148;28;20173;-94
2021/12/31 11:02:50;;;;;;;4.97;2.40;;;14.00;96.60;;;;;;5068385;28;20198;-90
2021/12/31 11:05:40;;;;;;;4.73;2.53;;;14.10;96.50;;;;;;5066855;28;20176;-91
2021/12/31 11:08:08;;;;;;;5.40;2.20;;;14.20;95.60;;;;;;5060808;28;20674;-89
2021/12/31 11:10:38;;;;;;;5.93;2.47;;;14.30;95.30;;;;;;5062301;28;20546;-89
2021/12/31 11:13:14;;;;;;;6.10;2.37;;;14.40;95.10;;;;;;5060542;28;20177;-88
2021/12/31 11:15:43;;;;;;;6.70;2.47;;;14.40;94.90;;;;;;5060507;28;20654;-89
2021/12/31 11:18:12;;;;;;;4.57;2.07;;;14.60;93.70;;;;;;5066635;28;20176;-87
2021/12/31 11:20:39;;;;;;;4.17;2.40;;;14.60;93.80;;;;;;5054863;28;20226;-85
2021/12/31 11:23:05;;;;;;;3.70;2.30;;;14.70;93.50;;;;;;5071144;28;20671;-88
2021/12/31 11:25:31;;;;;;;4.53;2.40;;;14.60;93.90;;;;;;5042464;28;20200;-85
2021/12/31 11:28:03;;;;;;;4.33;2.60;;;14.60;94.10;;;;;;5041826;28;20166;-82
2021/12/31 11:30:43;;;;;;;5.33;2.70;;;14.60;93.70;;;;;;5056794;28;20176;-82
2021/12/31 11:33:17;;;;;;;4.57;2.40;;;14.70;94.10;;;;;;5055803;28;20250;-88
2021/12/31 11:35:53;;;;;;;5.53;2.67;;;14.70;93.90;;;;;;5074364;28;20271;-89
2021/12/31 11:38:30;;;;;;;4.80;2.40;;;14.60;94.30;;;;;;5074713;28;20160;-82
2021/12/31 11:41:05;;;;;;;5.00;2.43;;;14.70;94.30;;;;;;5073843;28;20203;-93
2021/12/31 11:43:39;;;;;;;3.50;1.90;;;14.70;93.80;;;;;;5075681;28;20172;-87
2021/12/31 11:46:21;;;;;;;6.07;2.57;;;14.70;93.90;;;;;;5063499;28;20185;-90
2021/12/31 11:49:04;;;;;;;3.63;2.00;;;14.60;94.10;;;;;;5067966;28;20251;-87
2021/12/31 11:51:36;;;;;;;4.40;2.50;;;14.70;93.60;;;;;;5064140;28;20185;-92
2021/12/31 11:54:06;;;;;;;3.80;2.43;;;14.70;93.50;;;;;;5066380;28;20222;-83
2021/12/31 11:56:36;;;;;;;6.30;2.80;;;14.70;93.60;;;;;;5067208;28;20209;-90
2021/12/31 11:59:32;;;;;;;5.53;2.67;;;14.70;93.90;;;;;;5070213;28;20171;-89
2021/12/31 12:02:18;;;;;;;6.30;2.87;;;14.70;93.70;;;;;;5075935;28;20268;-82
2021/12/31 12:05:08;;;;;;;5.37;2.57;;;14.80;92.80;;;;;;5075514;28;20189;-79
2021/12/31 12:07:45;;;;;;;5.87;2.87;;;14.80;93.40;;;;;;5080516;28;20211;-82
2021/12/31 12:10:28;;;;;;;5.70;2.43;;;14.80;93.20;;;;;;5079433;28;20179;-81
2021/12/31 12:13:45;;;;;;;6.70;2.80;;;14.80;93.00;;;;;;5080038;28;20176;-83
2021/12/31 12:16:31;;;;;;;5.40;2.60;;;14.90;93.10;;;;;;5080903;28;20180;-84
2021/12/31 12:18:57;;;;;;;7.93;2.87;;;14.90;93.10;;;;;;5080127;28;20173;-82
2021/12/31 12:21:36;;;;;;;7.07;2.50;;;15.00;93.30;;;;;;5059113;28;20224;-81
2021/12/31 12:24:39;;;;;;;6.87;2.50;;;15.00;92.50;;;;;;5078072;28;20155;-84
2021/12/31 12:27:13;;;;;;;7.27;3.13;;;15.00;92.30;;;;;;5003995;28;20188;-82
2021/12/31 12:29:41;;;;;;;5.67;2.70;;;15.10;91.80;;;;;;5050409;28;20202;-87
2021/12/31 12:32:15;;;;;;;7.17;2.60;;;15.00;91.00;;;;;;5075721;28;20195;-82
2021/12/31 12:34:47;;;;;;;3.80;2.40;;;15.00;91.60;;;;;;5073535;28;20217;-84
2021/12/31 12:37:37;;;;;;;6.33;2.70;;;15.00;91.10;;;;;;5076689;28;20183;-81
2021/12/31 12:40:05;;;;;;;7.90;2.93;;;14.90;91.30;;;;;;5080481;28;20171;-84
2021/12/31 12:42:33;;;;;;;4.87;2.57;;;14.90;91.40;;;;;;5079650;28;20211;-83
2021/12/31 12:45:09;;;;;;;7.13;2.57;;;15.00;91.00;;;;;;5045547;28;20184;-87
2021/12/31 12:47:40;;;;;;;3.93;2.40;;;15.00;90.50;;;;;;5073436;28;20184;-85
2021/12/31 12:50:34;;;;;;;5.33;2.63;;;15.00;90.80;;;;;;5069680;28;20219;-81
2021/12/31 12:53:23;;;;;;;6.77;2.83;;;15.10;90.30;;;;;;5069679;28;20221;-81
2021/12/31 12:56:10;;;;;;;5.13;2.53;;;15.00;90.90;;;;;;5071723;28;20172;-82
2021/12/31 12:59:14;;;;;;;5.53;2.57;;;15.10;90.60;;;;;;5072140;28;20173;-87
2021/12/31 13:01:41;;;;;;;5.87;3.27;;;15.10;90.30;;;;;;5068016;28;20201;-83
2021/12/31 13:04:19;;;;;;;4.47;2.70;;;15.10;90.60;;;;;;5062609;28;20248;-82
2021/12/31 13:07:14;;;;;;;4.87;2.70;;;15.20;90.20;;;;;;5049731;28;20184;-83
2021/12/31 13:09:40;;;;;;;4.33;2.80;;;15.40;89.40;;;;;;5056306;28;20268;-87
2021/12/31 13:12:15;;;;;;;6.53;2.83;;;15.30;89.20;;;;;;5055273;28;20169;-90
2021/12/31 13:14:45;;;;;;;7.27;3.30;;;15.20;89.60;;;;;;5057454;28;20191;-84
2021/12/31 13:17:10;;;;;;;6.83;3.00;;;15.20;89.20;;;;;;5034992;28;20188;-83
2021/12/31 13:19:44;;;;;;;6.60;2.83;;;15.20;90.20;;;;;;5052882;28;20162;-92
2021/12/31 13:22:33;;;;;;;7.77;3.43;;;15.10;90.90;;;;;;5051465;28;20558;-85
2021/12/31 13:25:11;;;;;;;7.50;2.90;;;15.10;91.20;;;;;;5049635;28;20221;-89
2021/12/31 13:27:38;;;;;;;5.97;2.80;;;15.10;91.20;;;;;;5050599;28;20188;-90
2021/12/31 13:30:11;;;;;;;4.90;2.60;;;15.10;90.90;;;;;;5049642;28;20417;-86
2021/12/31 13:33:01;;;;;;;7.43;2.87;;;15.10;90.70;;;;;;5049719;28;20153;-81
2021/12/31 13:35:36;;;;;;;6.90;3.17;;;15.00;91.60;;;;;;5057896;28;20180;-80
2021/12/31 13:38:06;;;;;;;5.77;2.67;;;15.10;91.40;;;;;;5071049;28;20269;-82